createdAt,value
2023-03-13T00:01:37.262Z,8.80
2023-03-13T00:04:04.395Z,9.40
2023-03-13T00:06:34.687Z,9.23
2023-03-13T00:09:02.901Z,9.85
2023-03-13T00:11:30.299Z,8.95
2023-03-13T00:14:02.293Z,9.40
2023-03-13T00:16:32.511Z,10.55
2023-03-13T00:18:59.555Z,9.27
2023-03-13T00:21:28.747Z,10.10
2023-03-13T00:23:59.899Z,9.13
2023-03-13T00:26:30.057Z,11.00
2023-03-13T00:28:57.326Z,9.07
2023-03-13T00:31:28.904Z,9.95
2023-03-13T00:34:00.293Z,10.02
2023-03-13T00:36:32.265Z,10.27
2023-03-13T00:39:00.043Z,8.95
2023-03-13T00:41:31.890Z,10.40
2023-03-13T00:44:01.285Z,13.10
2023-03-13T00:46:29.984Z,9.68
2023-03-13T01:08:49.628Z,10.97
2023-03-13T01:11:25.161Z,11.45
2023-03-13T01:14:01.246Z,13.30
2023-03-13T01:16:31.126Z,12.73
2023-03-13T01:19:06.148Z,12.60
2023-03-13T01:21:34.115Z,13.48
2023-03-13T01:24:01.404Z,12.15
2023-03-13T01:26:29.377Z,16.98
2023-03-13T01:28:56.510Z,13.10
2023-03-13T01:31:30.629Z,16.35
2023-03-13T01:36:29.188Z,16.48
2023-03-13T01:38:58.561Z,16.20
2023-03-13T01:41:30.170Z,14.88
2023-03-13T01:43:57.883Z,13.20
2023-03-13T01:46:29.950Z,13.23
2023-03-13T01:49:07.590Z,16.70
2023-03-13T01:51:37.390Z,15.55
2023-03-13T01:54:24.696Z,19.05
2023-03-13T01:57:13.466Z,17.13
2023-03-13T02:00:09.917Z,17.05
2023-03-13T02:02:42.971Z,21.05
2023-03-13T02:05:10.520Z,19.35
2023-03-13T02:07:43.073Z,22.10
2023-03-13T02:10:11.553Z,20.30
2023-03-13T02:12:40.080Z,23.33
2023-03-13T02:15:19.720Z,20.17
2023-03-13T02:17:50.700Z,23.08
2023-03-13T02:20:21.284Z,19.85
2023-03-13T02:23:10.684Z,21.40
2023-03-13T02:25:47.685Z,21.85
2023-03-13T02:28:22.765Z,20.80
2023-03-13T02:30:53.125Z,20.58
2023-03-13T02:33:22.866Z,19.65
2023-03-13T02:35:53.693Z,25.10
2023-03-13T02:38:27.432Z,17.23
2023-03-13T02:41:00.781Z,21.05
2023-03-13T02:43:35.302Z,20.50
2023-03-13T02:46:08.381Z,20.17
2023-03-13T02:48:53.207Z,21.40
2023-03-13T02:51:24.489Z,21.27
2023-03-13T02:53:58.124Z,23.35
2023-03-13T02:56:27.401Z,22.70
2023-03-13T02:58:57.325Z,23.42
2023-03-13T03:04:08.841Z,23.08
2023-03-13T03:06:36.228Z,23.98
2023-03-13T03:09:03.993Z,19.55
2023-03-13T03:11:31.285Z,20.58
2023-03-13T03:14:01.189Z,23.73
2023-03-13T03:16:28.586Z,22.50
2023-03-13T03:18:55.666Z,26.15
2023-03-13T03:21:23.201Z,27.35
2023-03-13T03:23:52.511Z,22.17
2023-03-13T03:26:22.316Z,20.23
2023-03-13T03:28:49.344Z,22.92
2023-03-13T03:31:17.268Z,21.95
2023-03-13T03:33:45.558Z,22.67
2023-03-13T03:36:21.357Z,19.00
2023-03-13T03:38:49.021Z,21.27
2023-03-13T03:41:17.189Z,21.23
2023-03-13T03:43:44.303Z,21.65
2023-03-13T03:46:11.941Z,23.05
2023-03-13T03:48:38.992Z,19.73
2023-03-13T03:51:06.970Z,21.83
2023-03-13T03:53:38.545Z,24.55
2023-03-13T03:56:06.315Z,23.73
2023-03-13T03:58:35.680Z,26.52
2023-03-13T04:01:03.443Z,26.80
2023-03-13T04:03:30.842Z,22.20
2023-03-13T04:05:58.409Z,26.15
2023-03-13T04:08:27.672Z,23.40
2023-03-13T04:10:55.349Z,29.15
2023-03-13T04:13:22.476Z,32.15
2023-03-13T04:15:49.857Z,26.88
2023-03-13T04:18:16.920Z,25.33
2023-03-13T04:20:48.957Z,26.85
2023-03-13T04:23:15.951Z,28.58
2023-03-13T04:25:43.266Z,31.30
2023-03-13T04:28:12.558Z,25.75
2023-03-13T04:30:40.713Z,30.77
2023-03-13T04:33:10.031Z,30.10
2023-03-13T04:35:39.975Z,27.38
2023-03-13T04:38:07.088Z,34.15
2023-03-13T04:40:34.391Z,26.50
2023-03-13T04:43:03.854Z,31.73
2023-03-13T04:45:31.215Z,27.13
2023-03-13T04:47:58.255Z,31.23
2023-03-13T04:50:25.613Z,28.42
2023-03-13T04:52:52.793Z,29.75
2023-03-13T04:55:22.485Z,27.63
2023-03-13T04:57:49.596Z,28.98
2023-03-13T05:00:19.963Z,28.20
2023-03-13T05:02:47.108Z,29.85
2023-03-13T05:05:17.097Z,29.08
2023-03-13T05:07:44.160Z,25.98
2023-03-13T05:10:11.621Z,30.27
2023-03-13T05:12:38.772Z,32.65
2023-03-13T05:15:06.828Z,28.63
2023-03-13T05:17:33.939Z,29.08
2023-03-13T05:20:01.315Z,29.30
2023-03-13T05:22:31.053Z,25.67
2023-03-13T05:24:58.422Z,26.88
2023-03-13T05:27:25.501Z,26.42
2023-03-13T05:29:52.845Z,27.38
2023-03-13T05:32:19.904Z,26.30
2023-03-13T05:34:47.326Z,26.38
2023-03-13T05:37:14.376Z,27.88
2023-03-13T05:39:41.793Z,23.02
2023-03-13T05:42:08.795Z,22.45
2023-03-13T05:44:36.155Z,29.02
2023-03-13T05:47:04.164Z,24.13
2023-03-13T05:49:31.611Z,23.67
2023-03-13T05:51:58.615Z,20.52
2023-03-13T05:54:28.248Z,24.73
2023-03-13T05:56:57.883Z,21.75
2023-03-13T05:59:25.395Z,24.67
2023-03-13T06:01:52.415Z,24.67
2023-03-13T06:04:19.834Z,21.55
2023-03-13T06:06:47.500Z,19.70
2023-03-13T06:09:17.317Z,22.40
2023-03-13T06:11:44.348Z,18.95
2023-03-13T06:14:14.256Z,22.75
2023-03-13T06:16:41.693Z,20.25
2023-03-13T06:19:09.104Z,20.38
2023-03-13T06:21:38.466Z,20.45
2023-03-13T06:24:06.346Z,19.42
2023-03-13T06:26:37.860Z,17.63
2023-03-13T06:29:05.230Z,18.15
2023-03-13T06:31:34.783Z,15.25
2023-03-13T06:34:04.875Z,21.90
2023-03-13T06:36:34.183Z,17.85
2023-03-13T06:39:01.561Z,19.23
2023-03-13T06:41:28.625Z,16.38
2023-03-13T06:43:58.564Z,15.50
2023-03-13T06:46:27.955Z,17.80
2023-03-13T06:48:55.502Z,19.05
2023-03-13T06:51:22.790Z,17.30
2023-03-13T06:53:50.208Z,18.42
2023-03-13T06:56:19.631Z,16.15
2023-03-13T06:58:49.925Z,14.95
2023-03-13T07:01:18.400Z,17.67
2023-03-13T07:03:50.323Z,13.55
2023-03-13T07:06:20.078Z,16.08
2023-03-13T07:08:47.422Z,14.73
2023-03-13T07:11:14.826Z,12.00
2023-03-13T07:13:42.543Z,14.93
2023-03-13T07:16:12.133Z,15.82
2023-03-13T07:18:40.235Z,18.23
2023-03-13T07:21:07.707Z,13.63
2023-03-13T07:23:37.884Z,15.57
2023-03-13T07:26:10.904Z,16.98
2023-03-13T07:28:38.347Z,15.07
2023-03-13T07:31:10.619Z,11.43
2023-03-13T07:33:41.280Z,14.88
2023-03-13T07:36:09.357Z,15.38
2023-03-13T07:38:39.331Z,16.25
2023-03-13T07:41:06.851Z,14.05
2023-03-13T07:43:36.772Z,12.57
2023-03-13T07:46:07.857Z,13.98
2023-03-13T07:48:37.459Z,15.02
2023-03-13T07:51:06.482Z,12.05
2023-03-13T07:53:34.569Z,13.85
2023-03-13T07:56:04.500Z,14.07
2023-03-13T07:58:34.351Z,14.18
2023-03-13T08:01:18.683Z,13.98
2023-03-13T08:03:48.761Z,13.27
2023-03-13T08:06:17.770Z,15.52
2023-03-13T08:08:47.683Z,15.93
2023-03-13T08:11:22.566Z,15.20
2023-03-13T08:13:49.875Z,11.45
2023-03-13T08:16:25.160Z,15.68
2023-03-13T08:18:55.573Z,11.40
2023-03-13T08:21:25.403Z,14.68
2023-03-13T08:23:56.879Z,12.75
2023-03-13T08:26:27.271Z,14.15
2023-03-13T08:28:57.616Z,15.93
2023-03-13T08:31:30.304Z,13.50
2023-03-13T08:33:57.891Z,13.27
2023-03-13T08:36:33.871Z,12.23
2023-03-13T08:39:03.759Z,14.07
2023-03-13T08:41:33.997Z,12.70
2023-03-13T08:44:01.651Z,17.38
2023-03-13T08:46:36.002Z,12.73
2023-03-13T08:49:07.761Z,14.30
2023-03-13T08:51:37.503Z,13.88
2023-03-13T08:54:05.510Z,12.77
2023-03-13T08:56:35.442Z,12.40
2023-03-13T08:59:06.563Z,15.65
2023-03-13T09:01:35.209Z,15.30
2023-03-13T09:04:04.727Z,13.02
2023-03-13T09:06:36.936Z,11.70
2023-03-13T09:09:08.038Z,17.17
2023-03-13T09:11:37.379Z,14.05
2023-03-13T09:14:07.533Z,14.57
2023-03-13T09:16:34.852Z,17.67
2023-03-13T09:19:04.760Z,13.63
2023-03-13T09:21:34.060Z,15.52
2023-03-13T09:24:02.044Z,15.68
2023-03-13T09:26:32.084Z,14.32
2023-03-13T09:28:59.514Z,14.30
2023-03-13T09:31:29.657Z,15.73
2023-03-13T09:33:57.355Z,11.70
2023-03-13T09:36:25.480Z,14.75
2023-03-13T09:38:55.312Z,16.40
2023-03-13T09:41:39.823Z,10.40
2023-03-13T09:44:12.837Z,13.75
2023-03-13T09:46:44.137Z,15.77
2023-03-13T09:49:38.085Z,12.23
2023-03-13T09:52:18.298Z,13.13
2023-03-13T09:54:49.344Z,12.50
2023-03-13T09:57:50.344Z,14.65
2023-03-13T10:00:23.631Z,15.25
2023-03-13T10:02:57.795Z,12.70
2023-03-13T10:05:28.274Z,17.08
2023-03-13T10:08:25.074Z,12.50
2023-03-13T10:11:15.191Z,16.20
2023-03-13T10:14:19.934Z,11.98
2023-03-13T10:16:59.330Z,11.75
2023-03-13T10:19:32.894Z,9.48
2023-03-13T10:22:03.462Z,15.77
2023-03-13T10:24:45.547Z,11.93
2023-03-13T10:27:14.882Z,13.63
2023-03-13T10:29:45.320Z,11.15
2023-03-13T10:32:17.152Z,13.52
2023-03-13T10:34:55.624Z,13.20
2023-03-13T10:37:28.223Z,13.27
2023-03-13T10:39:55.390Z,13.35
2023-03-13T10:42:31.172Z,14.50
2023-03-13T10:44:59.890Z,10.40
2023-03-13T10:47:35.745Z,15.80
2023-03-13T10:50:04.743Z,12.10
2023-03-13T10:52:42.969Z,12.55
2023-03-13T10:55:17.587Z,11.50
2023-03-13T10:57:58.788Z,10.70
2023-03-13T11:00:31.844Z,10.23
2023-03-13T11:03:14.232Z,13.27
2023-03-13T11:05:45.022Z,8.55
2023-03-13T11:08:25.717Z,9.68
2023-03-13T11:11:00.375Z,9.13
2023-03-13T11:13:40.660Z,7.68
2023-03-13T11:16:29.740Z,9.65
2023-03-13T11:19:34.744Z,7.22
2023-03-13T11:22:18.263Z,9.52
2023-03-13T11:25:23.244Z,6.78
2023-03-13T11:28:22.755Z,7.90
2023-03-13T11:30:52.834Z,8.63
2023-03-13T11:33:48.921Z,11.10
2023-03-13T11:36:19.223Z,6.47
2023-03-13T11:39:02.871Z,5.93
2023-03-13T11:41:51.890Z,7.95
2023-03-13T11:44:29.823Z,8.82
2023-03-13T11:47:19.169Z,9.27
2023-03-13T11:49:58.650Z,9.10
2023-03-13T11:52:34.583Z,6.32
2023-03-13T11:55:19.384Z,7.72
2023-03-13T11:58:29.461Z,7.43
2023-03-13T12:01:05.282Z,10.88
2023-03-13T12:04:05.956Z,7.38
2023-03-13T12:06:41.591Z,9.55
2023-03-13T12:09:21.547Z,7.15
2023-03-13T12:12:23.986Z,9.07
2023-03-13T12:15:18.953Z,11.40
2023-03-13T12:18:05.479Z,8.27
2023-03-13T12:20:47.476Z,12.38
2023-03-13T12:23:18.858Z,11.57
2023-03-13T12:25:50.523Z,11.60
2023-03-13T12:28:40.306Z,7.40
2023-03-13T12:31:21.932Z,9.77
2023-03-13T12:34:03.272Z,12.20
2023-03-13T12:36:41.434Z,9.68
2023-03-13T12:39:26.806Z,10.93
2023-03-13T12:42:28.407Z,10.32
2023-03-13T12:44:59.141Z,10.05
2023-03-13T12:47:33.291Z,11.07
2023-03-13T12:50:37.479Z,13.43
2023-03-13T12:55:50.341Z,13.55
2023-03-13T12:58:30.581Z,9.90
2023-03-13T13:01:04.266Z,12.60
2023-03-13T13:03:36.931Z,9.98
2023-03-13T13:06:13.366Z,11.20
2023-03-13T13:08:54.249Z,11.52
2023-03-13T13:11:39.693Z,13.68
2023-03-13T13:14:16.065Z,11.18
2023-03-13T13:16:49.224Z,9.63
2023-03-13T13:19:25.766Z,11.15
2023-03-13T13:22:30.205Z,11.20
2023-03-13T13:25:01.718Z,9.15
2023-03-13T13:27:31.744Z,11.25
2023-03-13T13:29:59.886Z,10.77
2023-03-13T13:32:37.833Z,10.57
2023-03-13T13:35:33.395Z,10.73
2023-03-13T13:38:18.701Z,15.07
2023-03-13T13:41:11.114Z,15.43
2023-03-13T13:43:48.958Z,13.05
2023-03-13T13:46:27.033Z,12.73
2023-03-13T13:49:13.751Z,12.45
2023-03-13T13:51:42.661Z,12.55
2023-03-13T13:54:12.793Z,10.15
2023-03-13T13:56:52.213Z,10.85
2023-03-13T13:59:22.432Z,12.18
2023-03-13T14:02:11.108Z,12.88
2023-03-13T14:04:48.039Z,10.30
2023-03-13T14:07:40.375Z,9.90
2023-03-13T14:10:18.886Z,12.77
2023-03-13T14:12:51.650Z,12.25
2023-03-13T14:15:21.431Z,13.13
2023-03-13T14:17:59.270Z,11.98
2023-03-13T14:20:35.933Z,13.25
2023-03-13T14:23:11.630Z,9.20
2023-03-13T14:25:47.633Z,10.10
2023-03-13T14:28:24.079Z,10.77
2023-03-13T14:30:58.686Z,11.77
2023-03-13T14:33:27.025Z,10.02
2023-03-13T14:36:02.180Z,11.73
2023-03-13T14:38:31.706Z,9.30
2023-03-13T14:40:59.347Z,10.63
2023-03-13T14:43:40.932Z,7.53
2023-03-13T14:46:35.053Z,10.23
2023-03-13T14:49:38.010Z,10.48
2023-03-13T14:52:13.876Z,8.30
2023-03-13T14:55:04.605Z,8.52
2023-03-13T14:57:33.137Z,6.75
2023-03-13T15:00:28.219Z,9.57
2023-03-13T15:03:20.735Z,8.93
2023-03-13T15:06:27.243Z,7.65
2023-03-13T15:09:19.674Z,7.30
2023-03-13T15:12:00.287Z,6.65
2023-03-13T15:14:48.160Z,6.35
2023-03-13T15:17:41.761Z,8.65
2023-03-13T15:20:13.090Z,7.27
2023-03-13T15:22:45.013Z,8.65
2023-03-13T15:25:22.524Z,9.00
2023-03-13T15:27:50.745Z,7.03
2023-03-13T15:30:22.089Z,7.68
2023-03-13T15:32:52.439Z,9.27
2023-03-13T15:35:29.108Z,5.32
2023-03-13T15:37:58.387Z,5.15
2023-03-13T15:40:26.156Z,10.27
2023-03-13T15:42:55.011Z,5.95
2023-03-13T15:45:22.656Z,6.93
2023-03-13T15:47:52.530Z,6.50
2023-03-13T15:50:21.055Z,7.40
2023-03-13T15:52:50.899Z,5.75
2023-03-13T15:55:20.457Z,6.95
2023-03-13T15:57:50.512Z,31.65
2023-03-13T16:00:22.365Z,7.80
2023-03-13T16:02:50.027Z,8.40
2023-03-13T16:05:21.949Z,8.15
2023-03-13T16:07:49.429Z,8.60
2023-03-13T16:10:25.429Z,9.95
2023-03-13T16:12:55.736Z,8.38
2023-03-13T16:15:25.282Z,7.10
2023-03-13T16:17:52.607Z,10.82
2023-03-13T16:20:22.246Z,6.43
2023-03-13T16:22:51.655Z,6.13
2023-03-13T16:25:20.205Z,9.77
2023-03-13T16:27:47.798Z,10.02
2023-03-13T16:30:27.382Z,9.30
2023-03-13T16:33:00.048Z,9.80
2023-03-13T16:35:28.748Z,8.32
2023-03-13T16:37:57.269Z,10.48
2023-03-13T16:40:31.824Z,7.28
2023-03-13T16:43:01.745Z,12.50
2023-03-13T16:45:31.149Z,10.60
2023-03-13T16:47:58.642Z,9.18
2023-03-13T16:50:37.229Z,10.57
2023-03-13T16:53:07.140Z,12.82
2023-03-13T16:55:34.375Z,9.88
2023-03-13T16:58:01.908Z,9.60
2023-03-13T17:00:32.908Z,12.15
2023-03-13T17:03:00.739Z,9.63
2023-03-13T17:05:28.068Z,12.63
2023-03-13T17:07:55.785Z,11.07
2023-03-13T17:10:26.636Z,10.18
2023-03-13T17:12:54.403Z,7.70
2023-03-13T17:15:22.958Z,12.55
2023-03-13T17:17:52.298Z,10.98
2023-03-13T17:20:24.794Z,12.38
2023-03-13T17:22:52.976Z,11.05
2023-03-13T17:25:20.134Z,13.80
2023-03-13T17:27:47.720Z,11.52
2023-03-13T17:30:22.510Z,13.80
2023-03-13T17:32:50.425Z,11.73
2023-03-13T17:35:19.040Z,15.20
2023-03-13T17:37:47.695Z,11.57
2023-03-13T17:40:21.630Z,11.88
2023-03-13T17:42:49.078Z,10.85
2023-03-13T17:45:16.764Z,12.48
2023-03-13T17:47:44.200Z,11.10
2023-03-13T17:50:29.167Z,12.68
2023-03-13T17:52:56.608Z,10.27
2023-03-13T17:55:26.159Z,11.05
2023-03-13T17:57:53.533Z,12.65
2023-03-13T18:00:28.243Z,10.45
2023-03-13T18:02:56.051Z,11.68
2023-03-13T18:05:26.310Z,9.38
2023-03-13T18:07:56.673Z,8.45
2023-03-13T18:10:30.525Z,12.63
2023-03-13T18:12:58.084Z,13.10
2023-03-13T18:15:29.667Z,10.35
2023-03-13T18:17:59.308Z,12.13
2023-03-13T18:20:30.262Z,11.85
2023-03-13T18:22:58.122Z,11.05
2023-03-13T18:25:25.648Z,12.38
2023-03-13T18:27:55.310Z,10.18
2023-03-13T18:30:25.867Z,9.23
2023-03-13T18:32:55.540Z,9.23
2023-03-13T18:35:22.594Z,10.27
2023-03-13T18:37:49.970Z,9.27
2023-03-13T18:40:28.228Z,10.27
2023-03-13T18:42:55.733Z,10.95
2023-03-13T18:45:25.209Z,11.65
2023-03-13T18:47:55.616Z,10.80
2023-03-13T18:50:34.765Z,11.85
2023-03-13T18:53:02.212Z,11.73
2023-03-13T18:55:30.954Z,13.48
2023-03-13T18:58:00.563Z,10.18
2023-03-13T19:00:29.891Z,9.95
2023-03-13T19:02:57.350Z,14.02
2023-03-13T19:05:24.925Z,9.85
2023-03-13T19:07:52.064Z,10.85
2023-03-13T19:10:27.678Z,12.65
2023-03-13T19:12:55.981Z,14.35
2023-03-13T19:15:31.515Z,11.60
2023-03-13T19:18:02.654Z,11.10
2023-03-13T19:20:30.745Z,12.70
2023-03-13T19:22:57.787Z,13.48
2023-03-13T19:25:25.222Z,13.02
2023-03-13T19:27:52.273Z,14.80
2023-03-13T19:30:22.303Z,11.25
2023-03-13T19:32:52.237Z,12.48
2023-03-13T19:35:19.699Z,12.68
2023-03-13T19:37:47.099Z,13.70
2023-03-13T19:40:26.065Z,12.63
2023-03-13T19:42:53.181Z,13.82
2023-03-13T19:45:20.608Z,11.40
2023-03-13T19:47:48.232Z,15.85
2023-03-13T19:50:22.996Z,14.30
2023-03-13T19:52:52.645Z,13.07
2023-03-13T19:55:20.234Z,14.57
2023-03-13T19:57:47.371Z,12.25
2023-03-13T20:00:23.249Z,9.90
2023-03-13T20:02:50.537Z,11.27
2023-03-13T20:05:18.043Z,10.93
2023-03-13T20:07:45.099Z,11.93
2023-03-13T20:10:12.499Z,11.50
2023-03-13T20:12:39.568Z,12.57
2023-03-13T20:15:07.797Z,10.38
2023-03-13T20:17:37.338Z,11.02
2023-03-13T20:20:05.494Z,9.80
2023-03-13T20:22:32.568Z,10.02
2023-03-13T20:25:02.583Z,10.45
2023-03-13T20:27:32.211Z,10.65
2023-03-13T20:30:00.301Z,10.77
2023-03-13T20:32:29.600Z,10.73
2023-03-13T20:34:57.193Z,9.77
2023-03-13T20:37:26.158Z,14.23
2023-03-13T20:39:53.581Z,15.40
2023-03-13T20:42:22.866Z,12.48
2023-03-13T20:44:50.335Z,14.65
2023-03-13T20:47:17.775Z,13.88
2023-03-13T20:49:47.441Z,14.57
2023-03-13T20:52:14.525Z,10.25
2023-03-13T20:54:42.005Z,15.80
2023-03-13T20:57:11.532Z,11.25
2023-03-13T20:59:41.416Z,8.93
2023-03-13T21:02:08.562Z,10.73
2023-03-13T21:04:36.121Z,10.77
2023-03-13T21:07:03.396Z,8.48
2023-03-13T21:09:40.842Z,7.72
2023-03-13T21:12:14.703Z,8.85
2023-03-13T21:14:42.413Z,8.60
2023-03-13T21:17:09.706Z,10.35
2023-03-13T21:19:37.517Z,9.98
2023-03-13T21:22:06.323Z,10.27
2023-03-13T21:24:38.876Z,8.95
2023-03-13T21:27:08.201Z,8.68
2023-03-13T21:29:51.034Z,11.05
2023-03-13T21:32:47.858Z,11.38
2023-03-13T21:35:37.157Z,10.15
2023-03-13T21:38:09.992Z,15.80
2023-03-13T21:40:43.865Z,11.52
2023-03-13T21:43:13.482Z,10.15
2023-03-13T21:45:40.888Z,8.88
2023-03-13T21:48:08.002Z,8.25
2023-03-13T21:50:35.381Z,9.45
2023-03-13T21:53:02.557Z,12.30
2023-03-13T21:55:30.231Z,10.00
2023-03-13T21:57:57.278Z,11.63
2023-03-13T22:00:24.629Z,8.43
2023-03-13T22:02:51.701Z,7.10
2023-03-13T22:05:19.181Z,8.07
2023-03-13T22:07:46.195Z,8.35
2023-03-13T22:10:13.536Z,8.13
2023-03-13T22:12:40.612Z,8.00
2023-03-13T22:15:08.692Z,9.75
2023-03-13T22:17:38.287Z,14.88
2023-03-13T22:20:09.014Z,8.75
2023-03-13T22:22:36.101Z,10.13
2023-03-13T22:25:03.627Z,8.35
2023-03-13T22:27:30.697Z,8.98
2023-03-13T22:30:00.603Z,7.38
2023-03-13T22:32:27.748Z,8.40
2023-03-13T22:34:55.200Z,10.38
2023-03-13T22:37:24.779Z,11.15
2023-03-13T22:39:52.577Z,12.27
2023-03-13T22:42:23.280Z,10.27
2023-03-13T22:44:55.143Z,10.55
2023-03-13T22:47:24.041Z,11.10
2023-03-13T22:49:51.844Z,8.73
2023-03-13T22:52:19.313Z,10.07
2023-03-13T22:54:46.713Z,9.20
2023-03-13T22:57:13.705Z,10.23
2023-03-13T22:59:41.012Z,12.10
2023-03-13T23:02:10.489Z,10.85
2023-03-13T23:04:37.891Z,10.02
2023-03-13T23:07:04.966Z,11.98
2023-03-13T23:09:32.373Z,21.30
2023-03-13T23:11:59.365Z,10.88
2023-03-13T23:14:28.938Z,10.60
2023-03-13T23:16:56.920Z,11.18
2023-03-13T23:19:26.983Z,11.60
2023-03-13T23:21:56.203Z,10.73
2023-03-13T23:24:23.525Z,12.63
2023-03-13T23:26:50.637Z,9.95
2023-03-13T23:29:20.449Z,12.98
2023-03-13T23:31:50.204Z,10.90
2023-03-13T23:34:20.135Z,12.27
2023-03-13T23:36:49.473Z,11.73
2023-03-13T23:39:16.863Z,15.40
2023-03-13T23:41:46.120Z,18.05
2023-03-13T23:44:13.580Z,16.20
2023-03-13T23:46:40.628Z,14.13
2023-03-13T23:49:07.971Z,14.77
2023-03-13T23:51:34.994Z,13.82
2023-03-13T23:54:02.296Z,14.27
2023-03-13T23:56:31.575Z,12.30
2023-03-13T23:58:58.950Z,11.32
